Time;durP1;ratioP1;P1;durP2;ratioP2;P2;SDS_P1;SDS_P2;PMS_P1;PMS_P2;Temp;Humidity;BMP_temperature;BMP_pressure;BME280_temperature;BME280_humidity;BME280_pressure;Samples;Min_cycle;Max_cycle;Signal;HPM_P1;HPM_P2
2023/09/22 00:00:43;;;;;;;4.00;2.00;;;15.30;99.90;;;;;;5049624;28;20035;-17
2023/09/22 00:03:10;;;;;;;4.93;2.10;;;15.30;99.90;;;;;;5021900;28;20203;-18
2023/09/22 00:05:37;;;;;;;3.17;1.80;;;15.30;99.90;;;;;;5046905;28;20032;-17
2023/09/22 00:08:04;;;;;;;3.03;1.53;;;15.30;99.90;;;;;;5033468;28;20029;-17
2023/09/22 00:10:30;;;;;;;3.85;2.10;;;15.30;99.90;;;;;;5049630;28;20025;-17
2023/09/22 00:12:56;;;;;;;4.10;2.20;;;15.30;99.90;;;;;;5014056;28;20120;-18
2023/09/22 00:15:22;;;;;;;3.53;1.83;;;15.30;99.90;;;;;;5049745;28;20112;-17
2023/09/22 00:17:48;;;;;;;3.17;1.70;;;15.30;99.90;;;;;;5040621;28;20070;-18
2023/09/22 00:20:15;;;;;;;3.25;1.70;;;15.30;99.90;;;;;;5037350;28;20090;-17
2023/09/22 00:22:44;;;;;;;3.95;2.00;;;15.30;99.90;;;;;;5039947;28;20029;-18
2023/09/22 00:25:10;;;;;;;3.63;1.80;;;15.30;99.90;;;;;;5046179;28;20115;-17
2023/09/22 00:27:37;;;;;;;3.30;1.70;;;15.30;99.90;;;;;;5028862;28;20029;-17
2023/09/22 00:30:04;;;;;;;2.87;1.63;;;15.30;99.90;;;;;;5030693;28;20899;-17
2023/09/22 00:32:30;;;;;;;3.10;1.88;;;15.30;99.90;;;;;;5046808;28;20403;-17
2023/09/22 00:34:56;;;;;;;2.45;1.60;;;15.30;99.90;;;;;;5018496;28;20033;-18
2023/09/22 00:37:22;;;;;;;2.80;1.43;;;15.40;99.90;;;;;;5039892;28;20372;-17
2023/09/22 00:39:48;;;;;;;3.72;1.50;;;15.40;99.90;;;;;;5047044;28;20036;-18
2023/09/22 00:42:14;;;;;;;3.63;1.67;;;15.40;99.90;;;;;;5049128;28;20590;-17
2023/09/22 00:44:40;;;;;;;2.55;1.40;;;15.40;99.90;;;;;;5038426;28;20037;-18
2023/09/22 00:47:09;;;;;;;2.20;1.40;;;15.40;99.90;;;;;;5027657;28;20257;-17
2023/09/22 00:49:36;;;;;;;3.53;1.55;;;15.40;99.90;;;;;;5032679;28;20446;-17
2023/09/22 00:52:02;;;;;;;2.70;1.60;;;15.40;99.90;;;;;;5007127;28;20423;-17
2023/09/22 00:54:29;;;;;;;3.58;1.40;;;15.40;99.90;;;;;;5047131;28;20524;-17
2023/09/22 00:56:55;;;;;;;3.17;1.23;;;15.50;99.90;;;;;;5047397;28;20565;-18
2023/09/22 00:59:22;;;;;;;2.23;1.47;;;15.40;99.90;;;;;;5039330;28;20032;-18
2023/09/22 01:01:47;;;;;;;2.70;1.70;;;15.50;99.90;;;;;;5006557;28;20450;-18
2023/09/22 01:04:14;;;;;;;3.25;1.35;;;15.50;99.90;;;;;;5038677;28;20051;-18
2023/09/22 01:06:42;;;;;;;2.93;1.10;;;15.50;99.90;;;;;;5022836;28;20152;-17
2023/09/22 01:09:11;;;;;;;3.50;1.30;;;15.50;99.90;;;;;;5020762;28;20736;-18
2023/09/22 01:11:37;;;;;;;2.33;1.33;;;15.50;99.90;;;;;;5044639;28;20125;-17
2023/09/22 01:14:02;;;;;;;2.45;1.40;;;15.50;99.90;;;;;;5013957;28;20472;-18
2023/09/22 01:16:29;;;;;;;2.23;1.27;;;15.50;99.90;;;;;;5037309;28;20029;-18
2023/09/22 01:18:57;;;;;;;1.87;1.10;;;15.50;99.90;;;;;;5045871;28;20327;-17
2023/09/22 01:21:30;;;;;;;2.55;1.35;;;15.60;99.90;;;;;;5016093;28;20040;-17
2023/09/22 01:23:56;;;;;;;1.77;1.10;;;15.60;99.90;;;;;;5035777;28;20048;-17
2023/09/22 01:26:22;;;;;;;2.00;1.10;;;15.60;99.90;;;;;;5046942;28;20146;-18
2023/09/22 01:28:49;;;;;;;2.53;1.10;;;15.60;99.90;;;;;;5048649;28;20052;-18
2023/09/22 01:31:15;;;;;;;1.70;1.20;;;15.60;99.90;;;;;;5039654;28;20037;-18
2023/09/22 01:33:41;;;;;;;2.25;1.10;;;15.60;99.90;;;;;;5033251;28;20508;-17
2023/09/22 01:36:07;;;;;;;2.58;1.20;;;15.60;99.90;;;;;;5013843;28;20040;-18
2023/09/22 01:38:32;;;;;;;1.63;0.90;;;15.60;99.90;;;;;;5035898;28;21103;-17
2023/09/22 01:40:58;;;;;;;1.50;1.02;;;15.60;99.90;;;;;;5050312;28;20036;-17
2023/09/22 01:43:25;;;;;;;1.73;0.93;;;15.60;99.90;;;;;;5018721;28;20313;-18
2023/09/22 01:45:51;;;;;;;1.70;1.00;;;15.60;99.90;;;;;;5039955;28;20024;-17
2023/09/22 01:48:17;;;;;;;2.00;1.20;;;15.60;99.90;;;;;;5043963;28;20031;-18
2023/09/22 01:50:43;;;;;;;2.10;1.30;;;15.60;99.90;;;;;;5040517;28;20063;-18
2023/09/22 01:53:10;;;;;;;2.40;1.00;;;15.60;99.90;;;;;;5023614;28;20040;-18
2023/09/22 01:55:40;;;;;;;3.63;1.57;;;15.60;99.90;;;;;;5035796;28;20715;-17
2023/09/22 01:58:07;;;;;;;1.70;1.20;;;15.60;99.90;;;;;;5049087;28;20032;-18
2023/09/22 02:00:37;;;;;;;3.03;1.40;;;15.70;99.90;;;;;;5047763;28;20021;-17
2023/09/22 02:03:03;;;;;;;2.60;1.20;;;15.70;99.90;;;;;;5037807;28;20491;-18
2023/09/22 02:05:32;;;;;;;3.38;1.23;;;15.70;99.90;;;;;;5053394;28;20325;-17
2023/09/22 02:07:57;;;;;;;1.37;0.87;;;15.70;99.90;;;;;;5026158;28;20557;-17
2023/09/22 02:10:24;;;;;;;1.77;1.20;;;15.70;99.90;;;;;;5035385;28;20226;-17
2023/09/22 02:12:50;;;;;;;3.00;1.10;;;15.70;99.90;;;;;;5033099;28;20514;-20
2023/09/22 02:15:16;;;;;;;2.88;1.40;;;15.70;99.90;;;;;;5046835;28;20033;-20
2023/09/22 02:17:44;;;;;;;3.07;1.50;;;15.70;99.90;;;;;;5041672;28;20522;-20
2023/09/22 02:22:43;;;;;;;1.80;1.10;;;15.80;99.90;;;;;;5051919;28;20021;-20
2023/09/22 02:25:10;;;;;;;1.88;1.27;;;15.80;99.90;;;;;;5030697;28;20040;-20
2023/09/22 02:27:36;;;;;;;4.57;1.30;;;15.80;99.90;;;;;;5040723;28;20290;-20
2023/09/22 02:30:03;;;;;;;2.67;1.03;;;15.80;99.90;;;;;;5052272;28;20135;-20
2023/09/22 02:32:29;;;;;;;1.40;1.10;;;15.80;99.90;;;;;;5047531;28;20036;-20
2023/09/22 02:34:56;;;;;;;1.50;1.10;;;15.90;99.90;;;;;;5040917;28;20032;-20
2023/09/22 02:37:22;;;;;;;2.08;1.00;;;15.90;99.90;;;;;;5048715;28;20498;-20
2023/09/22 02:39:47;;;;;;;1.63;1.00;;;15.80;99.90;;;;;;5025598;28;20024;-20
2023/09/22 02:42:14;;;;;;;1.85;1.10;;;15.80;99.90;;;;;;5035970;28;20035;-20
2023/09/22 02:44:40;;;;;;;1.67;0.90;;;15.80;99.90;;;;;;5049152;28;20025;-20
2023/09/22 02:47:06;;;;;;;1.70;1.10;;;15.80;99.90;;;;;;5049074;28;20040;-20
2023/09/22 02:49:31;;;;;;;3.38;1.30;;;15.80;99.90;;;;;;5038212;28;20251;-20
2023/09/22 02:51:57;;;;;;;1.90;1.17;;;15.70;99.90;;;;;;5058194;28;20091;-20
2023/09/22 02:54:23;;;;;;;1.70;1.13;;;15.70;99.90;;;;;;5019026;28;20228;-20
2023/09/22 02:56:49;;;;;;;3.00;1.20;;;15.70;99.90;;;;;;5035725;28;20082;-20
2023/09/22 02:59:15;;;;;;;1.77;0.93;;;15.70;99.90;;;;;;5033889;28;20045;-20
2023/09/22 03:01:41;;;;;;;2.23;1.00;;;15.70;99.90;;;;;;5051015;28;20020;-20
2023/09/22 03:04:10;;;;;;;1.58;0.90;;;15.60;99.90;;;;;;5008135;28;20044;-20
2023/09/22 03:06:39;;;;;;;1.90;1.02;;;15.60;99.90;;;;;;5047200;28;20229;-20
2023/09/22 03:09:09;;;;;;;1.83;1.00;;;15.60;99.90;;;;;;5041094;28;20404;-20
2023/09/22 03:11:38;;;;;;;2.38;0.80;;;15.60;99.90;;;;;;5024444;28;20120;-20
2023/09/22 03:14:04;;;;;;;1.07;0.80;;;15.70;99.90;;;;;;5048627;28;20500;-20
2023/09/22 03:16:31;;;;;;;1.50;0.90;;;15.60;99.90;;;;;;5049358;28;20232;-20
2023/09/22 03:18:57;;;;;;;1.88;1.00;;;15.60;99.90;;;;;;5050889;28;20037;-20
2023/09/22 03:21:26;;;;;;;1.30;0.88;;;15.50;99.90;;;;;;5035684;28;20221;-18
2023/09/22 03:23:53;;;;;;;1.73;1.00;;;15.60;99.90;;;;;;5049403;28;20028;-18
2023/09/22 03:26:20;;;;;;;1.00;0.90;;;15.60;99.90;;;;;;4996324;28;20024;-18
2023/09/22 03:28:46;;;;;;;1.10;0.88;;;15.70;99.90;;;;;;5045656;28;20032;-18
2023/09/22 03:31:12;;;;;;;1.40;0.90;;;15.70;99.90;;;;;;5044465;28;20028;-18
2023/09/22 03:33:41;;;;;;;1.52;0.90;;;15.70;99.90;;;;;;5049472;28;20483;-18
2023/09/22 03:36:12;;;;;;;0.70;0.68;;;15.70;99.90;;;;;;5004358;28;20037;-18
2023/09/22 03:38:39;;;;;;;2.80;0.90;;;15.70;99.90;;;;;;5046813;28;20036;-18
2023/09/22 03:41:05;;;;;;;1.70;1.00;;;15.80;99.90;;;;;;5037427;28;20056;-18
2023/09/22 03:43:31;;;;;;;2.20;1.10;;;15.80;99.90;;;;;;5031438;28;20126;-18
2023/09/22 03:45:57;;;;;;;1.35;0.85;;;15.80;99.90;;;;;;5054409;28;20086;-18
2023/09/22 03:48:24;;;;;;;1.60;0.85;;;15.80;99.90;;;;;;5042922;28;20086;-18
2023/09/22 03:50:50;;;;;;;1.67;1.07;;;15.80;99.90;;;;;;5051861;28;20375;-18
2023/09/22 03:53:15;;;;;;;1.60;0.90;;;15.80;99.90;;;;;;5023675;28;20066;-18
2023/09/22 03:55:41;;;;;;;2.75;0.90;;;15.80;99.90;;;;;;5051517;28;20558;-18
2023/09/22 03:58:07;;;;;;;1.97;0.80;;;15.80;99.90;;;;;;5006754;28;20055;-19
2023/09/22 04:00:33;;;;;;;1.40;0.93;;;15.80;99.90;;;;;;5046494;28;20437;-18
2023/09/22 04:02:59;;;;;;;1.52;1.02;;;15.80;99.90;;;;;;5043880;28;20515;-18
2023/09/22 04:05:26;;;;;;;4.72;1.02;;;15.30;99.90;;;;;;5049071;28;20056;-18
2023/09/22 04:07:54;;;;;;;1.90;0.90;;;15.70;99.90;;;;;;5038805;28;20031;-18
2023/09/22 04:10:20;;;;;;;1.33;0.90;;;15.70;99.90;;;;;;5033890;28;20032;-18
2023/09/22 04:12:46;;;;;;;1.50;0.90;;;15.70;99.90;;;;;;5048323;28;20036;-18
2023/09/22 04:15:12;;;;;;;2.23;1.00;;;15.70;99.90;;;;;;5019077;28;20518;-18
2023/09/22 04:17:40;;;;;;;2.08;0.93;;;15.70;99.90;;;;;;5050610;28;20356;-18
2023/09/22 04:20:08;;;;;;;1.85;1.00;;;15.70;99.90;;;;;;5046015;28;20082;-18
2023/09/22 04:22:37;;;;;;;1.85;1.05;;;15.70;99.90;;;;;;5037236;28;20193;-18
2023/09/22 04:25:08;;;;;;;1.57;1.10;;;15.70;99.90;;;;;;5044251;28;20024;-18
2023/09/22 04:27:40;;;;;;;1.90;0.95;;;15.70;99.90;;;;;;5050159;28;20599;-18
2023/09/22 04:30:07;;;;;;;1.40;1.00;;;15.70;99.90;;;;;;5022645;28;20085;-18
2023/09/22 04:32:33;;;;;;;1.00;0.80;;;15.70;99.90;;;;;;5049963;28;20565;-21
2023/09/22 04:35:06;;;;;;;4.78;1.25;;;15.70;99.90;;;;;;5047975;28;20040;-20
2023/09/22 04:37:32;;;;;;;1.60;0.90;;;15.70;99.90;;;;;;5037706;28;20118;-20
2023/09/22 04:39:58;;;;;;;1.55;1.02;;;15.70;99.90;;;;;;5050297;28;20041;-20
2023/09/22 04:42:24;;;;;;;2.20;0.90;;;15.70;99.90;;;;;;5044062;28;20511;-20
2023/09/22 04:44:51;;;;;;;1.42;1.00;;;15.70;99.90;;;;;;4991545;28;20115;-20
2023/09/22 04:47:17;;;;;;;1.75;1.02;;;15.70;99.90;;;;;;5046741;28;20021;-20
2023/09/22 04:49:43;;;;;;;1.10;0.73;;;15.70;99.90;;;;;;5045916;28;20017;-20
2023/09/22 04:52:08;;;;;;;1.25;0.80;;;15.70;99.90;;;;;;5042370;28;20021;-20
2023/09/22 04:54:34;;;;;;;1.73;0.87;;;15.70;99.90;;;;;;5044590;28;20699;-20
2023/09/22 04:57:00;;;;;;;0.98;0.80;;;15.70;99.90;;;;;;5048770;28;20132;-20
2023/09/22 04:59:26;;;;;;;2.58;1.30;;;15.70;99.90;;;;;;5011401;28;20066;-20
2023/09/22 05:01:52;;;;;;;1.33;0.73;;;15.60;99.90;;;;;;5037382;28;20523;-20
2023/09/22 05:04:18;;;;;;;2.17;0.70;;;15.60;99.90;;;;;;5041166;28;20458;-20
2023/09/22 05:06:44;;;;;;;1.20;0.80;;;15.60;99.90;;;;;;5051734;28;20052;-20
2023/09/22 05:09:10;;;;;;;1.47;0.87;;;15.60;99.90;;;;;;5040879;28;20088;-20
2023/09/22 05:11:37;;;;;;;1.20;0.70;;;15.50;99.90;;;;;;5049735;28;20025;-20
2023/09/22 05:14:06;;;;;;;1.23;0.70;;;15.50;99.90;;;;;;5039119;28;20035;-20
2023/09/22 05:16:31;;;;;;;1.53;0.90;;;15.50;99.90;;;;;;5023681;28;20025;-20
2023/09/22 05:18:59;;;;;;;1.00;0.80;;;15.40;99.90;;;;;;5052844;28;21115;-20
2023/09/22 05:21:25;;;;;;;1.92;0.80;;;15.40;99.90;;;;;;5046393;28;20039;-20
2023/09/22 05:23:51;;;;;;;1.17;0.73;;;15.30;99.90;;;;;;5006459;28;20701;-20
2023/09/22 05:26:17;;;;;;;1.00;0.73;;;15.30;99.90;;;;;;5051094;28;20107;-21
2023/09/22 05:28:43;;;;;;;1.38;0.85;;;15.20;99.90;;;;;;5046566;28;20024;-21
2023/09/22 05:31:09;;;;;;;1.25;0.77;;;15.20;99.90;;;;;;5009679;28;20489;-20
2023/09/22 05:33:38;;;;;;;0.90;0.60;;;15.20;99.90;;;;;;5050264;28;20032;-20
2023/09/22 05:36:05;;;;;;;1.40;0.90;;;15.20;99.90;;;;;;5036959;28;20060;-20
2023/09/22 05:38:31;;;;;;;1.52;0.90;;;15.10;99.90;;;;;;5046238;28;20029;-20
2023/09/22 05:40:58;;;;;;;1.20;0.77;;;15.10;99.90;;;;;;5023118;28;20033;-20
2023/09/22 05:43:25;;;;;;;0.85;0.75;;;15.10;99.90;;;;;;5038729;28;20021;-19
2023/09/22 05:45:54;;;;;;;1.30;0.70;;;15.10;99.90;;;;;;5046784;28;20169;-18
2023/09/22 05:48:21;;;;;;;1.92;0.85;;;15.00;99.90;;;;;;5022935;28;20076;-19
2023/09/22 05:50:57;;;;;;;0.98;0.80;;;15.00;99.90;;;;;;5019696;28;20095;-18
2023/09/22 05:53:27;;;;;;;1.23;0.60;;;15.00;99.90;;;;;;5025648;28;20472;-19
2023/09/22 05:56:10;;;;;;;1.58;0.90;;;15.00;99.90;;;;;;5041184;28;20554;-19
2023/09/22 05:58:40;;;;;;;3.37;1.00;;;15.00;99.90;;;;;;5046507;28;20480;-19
2023/09/22 06:01:14;;;;;;;1.10;0.63;;;15.00;99.90;;;;;;5038280;28;20024;-19
2023/09/22 06:03:41;;;;;;;1.42;0.70;;;15.00;99.90;;;;;;5023029;28;20045;-19
2023/09/22 06:06:12;;;;;;;1.20;0.90;;;15.00;99.90;;;;;;5048229;28;20028;-19
2023/09/22 06:08:45;;;;;;;1.48;0.80;;;14.90;99.90;;;;;;5051266;28;20033;-19
2023/09/22 06:11:12;;;;;;;1.30;0.80;;;14.90;99.90;;;;;;5036718;28;20029;-19
2023/09/22 06:13:38;;;;;;;0.90;0.60;;;14.90;99.90;;;;;;5055228;28;20028;-19
2023/09/22 06:16:04;;;;;;;1.02;0.70;;;14.90;99.90;;;;;;5040105;28;20371;-19
2023/09/22 06:18:31;;;;;;;1.40;0.80;;;14.90;99.90;;;;;;5023488;28;20043;-19
2023/09/22 06:20:59;;;;;;;1.13;0.80;;;14.90;99.90;;;;;;5046497;28;20067;-19
2023/09/22 06:23:27;;;;;;;1.27;0.70;;;14.90;99.90;;;;;;5052011;28;20029;-19
2023/09/22 06:25:59;;;;;;;0.65;0.60;;;14.90;99.90;;;;;;5036788;28;20016;-19
2023/09/22 06:28:25;;;;;;;1.30;0.73;;;14.90;99.90;;;;;;5049175;28;20039;-19
2023/09/22 06:30:52;;;;;;;1.70;0.80;;;15.00;99.90;;;;;;5040976;28;20526;-19
2023/09/22 06:33:18;;;;;;;1.40;0.70;;;15.00;99.90;;;;;;5030775;28;20297;-19
2023/09/22 06:35:45;;;;;;;0.80;0.70;;;15.00;99.90;;;;;;5051454;28;20387;-19
2023/09/22 06:38:13;;;;;;;0.90;0.70;;;15.00;99.90;;;;;;5037089;28;20487;-19
2023/09/22 06:40:39;;;;;;;0.95;0.70;;;15.00;99.90;;;;;;5051160;28;20025;-19
2023/09/22 06:43:08;;;;;;;1.35;0.60;;;15.10;99.90;;;;;;5022686;28;20313;-19
2023/09/22 06:45:37;;;;;;;1.67;1.13;;;15.10;99.90;;;;;;5049076;28;20035;-19
2023/09/22 06:48:05;;;;;;;1.57;0.80;;;15.00;99.90;;;;;;5003947;28;20037;-19
2023/09/22 06:50:37;;;;;;;0.75;0.70;;;15.10;99.90;;;;;;5009351;28;20033;-19
2023/09/22 06:53:04;;;;;;;1.10;0.77;;;15.10;99.90;;;;;;5031581;28;20431;-20
2023/09/22 06:55:33;;;;;;;1.52;0.85;;;15.20;99.90;;;;;;5045921;28;20033;-20
2023/09/22 06:57:59;;;;;;;1.42;0.90;;;15.20;99.90;;;;;;5038512;28;20020;-21
2023/09/22 07:00:28;;;;;;;1.73;0.93;;;15.20;99.90;;;;;;5052744;28;20582;-20
2023/09/22 07:02:55;;;;;;;1.83;0.80;;;15.20;99.90;;;;;;5033411;28;20737;-21
2023/09/22 07:05:21;;;;;;;1.95;1.02;;;15.20;99.90;;;;;;5027337;28;20053;-20
2023/09/22 07:07:49;;;;;;;1.38;0.90;;;15.30;99.90;;;;;;5044742;28;20499;-21
2023/09/22 07:10:16;;;;;;;1.98;0.90;;;15.30;99.90;;;;;;5040704;28;20024;-21
2023/09/22 07:12:42;;;;;;;1.33;0.80;;;15.30;99.90;;;;;;5034978;28;20884;-21
2023/09/22 07:15:12;;;;;;;0.57;0.55;;;15.40;99.90;;;;;;5046492;28;20029;-21
2023/09/22 07:17:40;;;;;;;1.95;0.80;;;15.40;99.90;;;;;;5037903;28;20120;-20
2023/09/22 07:20:11;;;;;;;0.70;0.70;;;15.50;99.90;;;;;;5023636;28;20522;-20
2023/09/22 07:22:37;;;;;;;1.50;0.90;;;15.60;99.90;;;;;;5044712;28;20025;-20
2023/09/22 07:25:03;;;;;;;1.67;0.90;;;15.70;99.90;;;;;;5043303;28;20017;-21
2023/09/22 07:27:29;;;;;;;0.88;0.80;;;16.00;99.90;;;;;;5042216;28;20025;-20
2023/09/22 07:29:55;;;;;;;1.02;0.88;;;16.20;99.90;;;;;;5041568;28;20118;-21
2023/09/22 07:32:21;;;;;;;0.98;0.80;;;16.60;99.90;;;;;;5032774;28;20040;-21
2023/09/22 07:34:49;;;;;;;1.33;0.70;;;17.00;99.90;;;;;;5032623;28;20763;-21
2023/09/22 07:37:18;;;;;;;1.10;0.85;;;17.50;99.90;;;;;;5034822;28;20068;-21
2023/09/22 07:39:44;;;;;;;1.27;1.00;;;17.90;99.90;;;;;;5042003;28;20100;-21
2023/09/22 07:42:10;;;;;;;1.08;0.98;;;18.30;99.90;;;;;;5047497;28;20031;-21
2023/09/22 07:44:36;;;;;;;1.53;0.90;;;18.50;99.90;;;;;;5037094;28;20395;-21
2023/09/22 07:47:09;;;;;;;1.05;0.80;;;18.80;99.90;;;;;;5045142;28;20081;-21
2023/09/22 07:49:36;;;;;;;1.70;0.80;;;19.10;99.90;;;;;;5038471;28;20057;-21
2023/09/22 07:52:02;;;;;;;2.08;0.80;;;19.50;99.90;;;;;;5021021;28;20029;-21
2023/09/22 07:54:28;;;;;;;1.20;0.90;;;19.90;99.90;;;;;;5048854;28;20403;-21
2023/09/22 07:56:54;;;;;;;1.02;0.75;;;20.30;99.90;;;;;;5042048;28;20202;-21
2023/09/22 07:59:20;;;;;;;1.08;0.70;;;20.50;99.90;;;;;;5033910;28;23425;-21
2023/09/22 08:01:46;;;;;;;1.33;0.80;;;20.60;99.90;;;;;;5046745;28;20036;-21
2023/09/22 08:04:12;;;;;;;1.08;0.73;;;20.80;99.90;;;;;;5033087;28;20248;-21
2023/09/22 08:06:39;;;;;;;1.23;0.70;;;20.80;99.90;;;;;;5021455;28;20028;-21
2023/09/22 08:09:05;;;;;;;0.80;0.80;;;20.90;99.90;;;;;;5046057;28;20392;-21
2023/09/22 08:11:32;;;;;;;0.97;0.70;;;21.00;99.90;;;;;;5038988;28;20622;-21
2023/09/22 08:14:01;;;;;;;0.77;0.70;;;21.20;99.90;;;;;;5031628;28;20586;-21
2023/09/22 08:16:27;;;;;;;1.00;0.70;;;21.20;99.90;;;;;;5032440;28;20033;-21
2023/09/22 08:18:54;;;;;;;0.88;0.70;;;21.30;99.90;;;;;;5044382;28;20031;-21
2023/09/22 08:21:21;;;;;;;0.83;0.60;;;21.40;99.90;;;;;;5017489;28;20033;-21
2023/09/22 08:23:47;;;;;;;1.30;0.73;;;21.40;99.90;;;;;;5048490;28;20107;-21
2023/09/22 08:26:17;;;;;;;0.98;0.70;;;21.60;99.90;;;;;;5043195;28;20052;-21
2023/09/22 08:28:47;;;;;;;0.90;0.63;;;21.80;99.90;;;;;;5046598;28;20013;-21
2023/09/22 08:31:13;;;;;;;1.20;0.70;;;22.00;99.90;;;;;;5037884;28;20924;-21
2023/09/22 08:33:40;;;;;;;1.47;0.80;;;22.30;99.90;;;;;;5057853;28;20025;-21
2023/09/22 08:36:06;;;;;;;0.88;0.70;;;22.50;99.90;;;;;;5038549;28;20648;-21
2023/09/22 08:38:35;;;;;;;1.05;0.80;;;22.70;99.90;;;;;;5014937;28;20415;-21
2023/09/22 08:41:03;;;;;;;1.48;0.68;;;22.80;99.90;;;;;;5027999;28;20319;-21
2023/09/22 08:43:30;;;;;;;0.95;0.60;;;24.60;99.90;;;;;;5050385;28;20032;-22
2023/09/22 08:45:55;;;;;;;0.97;0.70;;;22.90;99.90;;;;;;5031309;28;20683;-21
2023/09/22 08:48:24;;;;;;;1.25;0.68;;;23.10;99.90;;;;;;5053909;28;20103;-21
2023/09/22 08:50:50;;;;;;;0.90;0.80;;;23.10;99.90;;;;;;5052818;28;20391;-21
2023/09/22 08:53:17;;;;;;;1.57;0.70;;;23.20;99.90;;;;;;5014118;28;20025;-21
2023/09/22 08:55:43;;;;;;;0.85;0.60;;;23.30;99.90;;;;;;5046410;28;20387;-21
2023/09/22 08:58:09;;;;;;;0.88;0.60;;;23.30;99.90;;;;;;5038113;28;20654;-22
2023/09/22 09:00:35;;;;;;;1.30;0.60;;;23.40;99.90;;;;;;5035521;28;20112;-21
2023/09/22 09:03:09;;;;;;;1.70;0.68;;;23.50;99.90;;;;;;5043898;28;20691;-21
2023/09/22 09:05:36;;;;;;;1.70;0.80;;;23.50;99.90;;;;;;5045595;28;20446;-21
2023/09/22 09:08:12;;;;;;;0.63;0.50;;;23.30;99.90;;;;;;5019856;28;20044;-21
2023/09/22 09:10:39;;;;;;;0.85;0.60;;;23.10;97.70;;;;;;5040445;28;20037;-21
2023/09/22 09:13:06;;;;;;;0.90;0.68;;;22.90;99.90;;;;;;5037997;28;20029;-20
2023/09/22 09:15:45;;;;;;;1.25;0.80;;;22.80;99.90;;;;;;5050223;28;20044;-20
2023/09/22 09:18:13;;;;;;;2.13;0.90;;;22.90;99.90;;;;;;5047074;28;20376;-20
2023/09/22 09:20:40;;;;;;;1.27;0.70;;;23.10;99.90;;;;;;5049419;28;20037;-20
2023/09/22 09:23:15;;;;;;;1.27;0.70;;;23.10;99.90;;;;;;5018644;28;20984;-20
2023/09/22 09:25:43;;;;;;;1.52;0.60;;;23.10;99.30;;;;;;5043283;28;20032;-20
2023/09/22 09:28:11;;;;;;;1.05;0.70;;;23.00;99.80;;;;;;5038469;28;20027;-20
2023/09/22 09:30:37;;;;;;;0.80;0.60;;;22.90;99.60;;;;;;5049870;28;20036;-20
2023/09/22 09:33:11;;;;;;;0.77;0.50;;;22.70;99.50;;;;;;5030422;28;20025;-20
2023/09/22 09:35:39;;;;;;;0.80;0.55;;;22.50;98.70;;;;;;5045115;28;20152;-20
2023/09/22 09:38:06;;;;;;;1.30;0.60;;;22.30;98.80;;;;;;5029377;28;20056;-20
2023/09/22 09:40:36;;;;;;;1.25;0.65;;;22.00;99.50;;;;;;5034695;28;20044;-20
2023/09/22 09:43:06;;;;;;;1.13;0.60;;;21.90;99.70;;;;;;5041283;28;20053;-20
2023/09/22 09:45:36;;;;;;;0.63;0.50;;;21.70;99.20;;;;;;5039729;28;20029;-20
2023/09/22 09:48:04;;;;;;;0.77;0.70;;;21.60;99.90;;;;;;5024202;28;20025;-20
2023/09/22 09:50:32;;;;;;;1.33;0.73;;;21.60;99.90;;;;;;5053488;28;20032;-20
2023/09/22 09:53:11;;;;;;;1.35;0.70;;;21.70;99.90;;;;;;5054301;28;20410;-20
2023/09/22 09:55:37;;;;;;;0.60;0.60;;;22.00;99.90;;;;;;5000563;28;20128;-20
2023/09/22 09:58:04;;;;;;;0.63;0.63;;;22.40;99.90;;;;;;5047920;28;20111;-20
2023/09/22 10:00:35;;;;;;;0.90;0.60;;;22.70;99.90;;;;;;5045347;28;20603;-21
2023/09/22 10:03:03;;;;;;;2.03;0.60;;;22.90;99.90;;;;;;5039143;28;20162;-20
2023/09/22 10:05:32;;;;;;;0.80;0.77;;;23.10;99.90;;;;;;5047970;28;20257;-20
2023/09/22 10:07:59;;;;;;;1.43;0.70;;;23.30;99.90;;;;;;5051018;28;20056;-21
2023/09/22 10:10:27;;;;;;;1.48;0.75;;;23.50;99.90;;;;;;5024260;28;20709;-20
2023/09/22 10:12:52;;;;;;;0.90;0.60;;;23.60;99.90;;;;;;5054715;28;20032;-20
2023/09/22 10:15:52;;;;;;;1.02;0.70;;;23.70;99.90;;;;;;5040155;28;20622;-20
2023/09/22 10:18:18;;;;;;;0.93;0.73;;;23.70;99.90;;;;;;5035988;28;20869;-20
2023/09/22 10:20:46;;;;;;;0.93;0.60;;;23.90;99.90;;;;;;5050495;28;20431;-20
2023/09/22 10:23:22;;;;;;;1.58;0.90;;;24.10;99.90;;;;;;5047506;28;20131;-21
2023/09/22 10:26:16;;;;;;;1.45;0.80;;;24.40;99.90;;;;;;5023917;28;20013;-21
2023/09/22 10:28:42;;;;;;;0.65;0.60;;;24.50;99.90;;;;;;5048661;28;20036;-21
2023/09/22 10:31:09;;;;;;;1.53;0.70;;;24.60;99.90;;;;;;5036920;28;20071;-21
2023/09/22 10:33:35;;;;;;;1.17;0.80;;;24.60;99.90;;;;;;5030864;28;20037;-21
2023/09/22 10:36:04;;;;;;;1.42;0.77;;;24.50;99.90;;;;;;5038185;28;20025;-21
2023/09/22 10:38:30;;;;;;;1.00;0.90;;;24.70;99.90;;;;;;5046381;28;20249;-21
2023/09/22 10:40:59;;;;;;;0.70;0.63;;;24.80;99.90;;;;;;5042235;28;20040;-21
2023/09/22 10:43:26;;;;;;;2.05;1.00;;;25.00;99.90;;;;;;5034810;28;20115;-21
2023/09/22 10:45:52;;;;;;;1.30;0.73;;;25.30;99.90;;;;;;5050608;28;20492;-21
2023/09/22 10:48:18;;;;;;;1.25;0.80;;;25.50;99.90;;;;;;5039579;28;20511;-21
2023/09/22 10:50:53;;;;;;;1.65;0.82;;;25.70;99.90;;;;;;5040839;28;20115;-22
2023/09/22 10:53:20;;;;;;;1.03;0.60;;;25.70;99.90;;;;;;5045699;28;20025;-21
2023/09/22 10:55:46;;;;;;;0.90;0.65;;;25.60;99.90;;;;;;5047187;28;20028;-21
2023/09/22 10:58:18;;;;;;;2.13;0.70;;;25.50;99.90;;;;;;5020674;28;20403;-21
2023/09/22 11:01:08;;;;;;;1.60;0.70;;;25.40;99.90;;;;;;5042530;28;20115;-22
2023/09/22 11:03:35;;;;;;;0.90;0.73;;;25.30;97.10;;;;;;5043811;28;20067;-21
2023/09/22 11:06:10;;;;;;;1.37;0.80;;;25.10;99.30;;;;;;5032900;28;20031;-21
2023/09/22 11:08:52;;;;;;;0.82;0.70;;;24.90;99.00;;;;;;5050634;28;20558;-21
2023/09/22 11:11:19;;;;;;;0.88;0.68;;;24.70;98.50;;;;;;5048244;28;20124;-21
2023/09/22 11:13:56;;;;;;;1.23;0.70;;;24.60;99.80;;;;;;5008383;28;20029;-21
2023/09/22 11:16:27;;;;;;;1.73;0.80;;;24.50;98.00;;;;;;5045700;28;20442;-21
2023/09/22 11:19:08;;;;;;;0.83;0.70;;;24.30;99.60;;;;;;5032626;28;20028;-21
2023/09/22 11:21:38;;;;;;;1.10;0.80;;;24.20;97.90;;;;;;5036295;28;20363;-21
2023/09/22 11:24:06;;;;;;;1.25;0.80;;;24.10;99.00;;;;;;5047351;28;20037;-21
2023/09/22 11:26:43;;;;;;;1.83;0.90;;;24.00;99.90;;;;;;5033291;28;20173;-21
2023/09/22 11:29:09;;;;;;;1.40;1.00;;;23.90;98.50;;;;;;5020586;28;20033;-21
2023/09/22 11:31:48;;;;;;;0.90;0.80;;;23.90;99.90;;;;;;5043172;28;20043;-21
2023/09/22 11:34:13;;;;;;;1.05;0.80;;;23.80;98.10;;;;;;5039741;28;20463;-20
2023/09/22 11:36:53;;;;;;;1.45;0.93;;;23.80;99.90;;;;;;5033652;28;20245;-20
2023/09/22 11:39:30;;;;;;;1.95;1.17;;;23.80;98.60;;;;;;5045575;28;20078;-21
2023/09/22 11:41:56;;;;;;;1.10;0.80;;;23.70;97.70;;;;;;5052522;28;20064;-20
2023/09/22 11:44:23;;;;;;;2.30;0.90;;;23.70;99.60;;;;;;5024768;28;20135;-20
2023/09/22 11:46:49;;;;;;;1.42;0.70;;;23.60;99.50;;;;;;5044395;28;20483;-20
2023/09/22 11:49:14;;;;;;;1.15;0.80;;;23.50;99.40;;;;;;5035319;28;20248;-20
2023/09/22 11:52:05;;;;;;;0.67;0.60;;;23.40;99.50;;;;;;5033264;28;20221;-20
2023/09/22 11:54:34;;;;;;;1.23;0.70;;;23.30;99.90;;;;;;5044646;28;20033;-20
2023/09/22 11:57:00;;;;;;;0.98;0.70;;;23.20;99.00;;;;;;5047592;28;20540;-20
2023/09/22 11:59:29;;;;;;;1.50;0.60;;;23.20;99.90;;;;;;5020015;28;20286;-20
2023/09/22 12:01:55;;;;;;;1.67;0.90;;;23.10;99.60;;;;;;5047306;28;20332;-20
2023/09/22 12:04:22;;;;;;;1.67;0.68;;;23.10;99.60;;;;;;5041351;28;20060;-21
2023/09/22 12:06:51;;;;;;;1.20;0.50;;;23.10;99.60;;;;;;5037236;28;20552;-20
2023/09/22 12:09:18;;;;;;;0.93;0.50;;;23.00;99.20;;;;;;5044992;28;20471;-20
2023/09/22 12:11:45;;;;;;;1.17;0.55;;;22.90;99.00;;;;;;5045274;28;20031;-20
2023/09/22 12:14:11;;;;;;;1.00;0.70;;;22.80;98.60;;;;;;5004391;28;20039;-20
2023/09/22 12:16:38;;;;;;;0.95;0.47;;;22.70;99.00;;;;;;5042548;28;20068;-20
2023/09/22 12:19:04;;;;;;;0.98;0.55;;;22.60;98.80;;;;;;5054464;28;20521;-20
2023/09/22 12:21:31;;;;;;;0.88;0.57;;;22.50;98.90;;;;;;5030996;28;20620;-19
2023/09/22 12:23:57;;;;;;;2.22;0.70;;;22.40;98.70;;;;;;5033039;28;20016;-20
2023/09/22 12:26:23;;;;;;;1.30;0.70;;;22.40;99.00;;;;;;5037888;28;20036;-20
2023/09/22 12:28:49;;;;;;;1.58;0.65;;;22.30;99.10;;;;;;5047092;28;20025;-19
2023/09/22 12:31:19;;;;;;;0.88;0.50;;;22.20;99.30;;;;;;5017568;28;20025;-20
2023/09/22 12:33:46;;;;;;;0.82;0.60;;;22.30;98.40;;;;;;5037566;28;20025;-19
2023/09/22 12:36:15;;;;;;;1.10;0.70;;;22.20;99.40;;;;;;5061056;28;20733;-20
2023/09/22 12:38:44;;;;;;;1.40;0.65;;;22.20;99.40;;;;;;5029172;28;20276;-20
2023/09/22 12:41:11;;;;;;;1.05;0.60;;;22.20;99.20;;;;;;5048955;28;20036;-20
2023/09/22 12:43:37;;;;;;;1.20;0.57;;;22.30;99.90;;;;;;5043385;28;20630;-19
2023/09/22 12:46:22;;;;;;;1.10;0.60;;;22.40;99.90;;;;;;5024770;28;20020;-19
2023/09/22 12:48:49;;;;;;;0.97;0.60;;;22.50;99.90;;;;;;5046818;28;20063;-19
2023/09/22 12:51:15;;;;;;;1.33;0.60;;;22.50;99.90;;;;;;5047058;28;20040;-20
2023/09/22 12:53:41;;;;;;;1.58;0.70;;;22.60;99.90;;;;;;5026451;28;20099;-20